Time;durP1;ratioP1;P1;durP2;ratioP2;P2;SDS_P1;SDS_P2;PMS_P1;PMS_P2;Temp;Humidity;BMP_temperature;BMP_pressure;BME280_temperature;BME280_humidity;BME280_pressure;Samples;Min_cycle;Max_cycle;Signal;HPM_P1;HPM_P2
2021/06/20 00:01:00;;;;;;;11.15;7.10;;;26.50;1.00;;;;;;5026747;28;20060;-76
2021/06/20 00:03:25;;;;;;;7.72;6.95;;;26.60;1.00;;;;;;5033795;28;20477;-77
2021/06/20 00:05:59;;;;;;;11.02;7.50;;;26.60;1.00;;;;;;5023109;28;20030;-77
2021/06/20 00:08:25;;;;;;;11.68;6.93;;;26.60;1.00;;;;;;5015914;28;20034;-77
2021/06/20 00:10:52;;;;;;;8.88;7.70;;;26.60;1.00;;;;;;5042229;28;20032;-75
2021/06/20 00:13:19;;;;;;;7.82;6.85;;;26.50;1.00;;;;;;5050059;28;20037;-76
2021/06/20 00:15:47;;;;;;;11.30;7.97;;;26.40;1.00;;;;;;5032663;28;20088;-76
2021/06/20 00:18:14;;;;;;;9.48;8.48;;;26.40;1.00;;;;;;5014684;28;20033;-76
2021/06/20 00:20:42;;;;;;;10.75;7.38;;;26.40;1.00;;;;;;5017762;28;20029;-76
2021/06/20 00:23:08;;;;;;;12.13;7.13;;;26.30;1.00;;;;;;5034293;28;20049;-76
2021/06/20 00:25:34;;;;;;;12.48;7.15;;;26.30;1.00;;;;;;5033124;28;20029;-76
2021/06/20 00:28:01;;;;;;;8.02;6.93;;;26.30;1.00;;;;;;5024941;28;20030;-76
2021/06/20 00:30:31;;;;;;;8.15;6.88;;;26.30;1.00;;;;;;5067613;22;20143;-81
2021/06/20 00:32:58;;;;;;;8.85;6.63;;;26.20;1.00;;;;;;5058357;28;20025;-80
2021/06/20 00:35:24;;;;;;;8.10;6.68;;;26.20;1.00;;;;;;5058986;28;20025;-79
2021/06/20 00:37:50;;;;;;;8.90;6.65;;;26.20;1.00;;;;;;5057862;28;20053;-81
2021/06/20 00:40:17;;;;;;;7.45;5.95;;;26.20;1.00;;;;;;5056691;28;20029;-81
2021/06/20 00:42:43;;;;;;;8.30;5.63;;;26.30;1.00;;;;;;5034831;28;20440;-79
2021/06/20 00:45:11;;;;;;;13.85;6.90;;;26.40;1.00;;;;;;5039727;28;20021;-82
2021/06/20 00:47:36;;;;;;;11.18;6.05;;;26.40;1.00;;;;;;5054136;28;20396;-80
2021/06/20 00:50:07;;;;;;;11.85;6.13;;;26.40;1.00;;;;;;5053428;28;20025;-80
2021/06/20 00:52:34;;;;;;;9.02;7.15;;;26.40;1.00;;;;;;5053984;28;20032;-81
2021/06/20 00:55:00;;;;;;;10.27;6.25;;;26.30;1.00;;;;;;5050112;28;20033;-81
2021/06/20 00:57:26;;;;;;;6.53;5.93;;;26.30;1.00;;;;;;5035296;28;20036;-82
2021/06/20 00:59:52;;;;;;;10.70;6.20;;;26.30;1.00;;;;;;5033900;28;20041;-80
2021/06/20 01:02:19;;;;;;;10.55;6.80;;;26.30;1.00;;;;;;5033894;28;20025;-80
2021/06/20 01:04:48;;;;;;;8.60;5.95;;;26.30;1.00;;;;;;5034797;28;20018;-81
2021/06/20 01:07:18;;;;;;;11.65;6.43;;;26.30;1.00;;;;;;5053751;28;20143;-82
2021/06/20 01:09:44;;;;;;;8.93;6.07;;;26.30;1.00;;;;;;5055430;28;20392;-81
2021/06/20 01:12:11;;;;;;;13.98;6.25;;;26.30;1.00;;;;;;5054280;28;20025;-82
2021/06/20 01:14:37;;;;;;;18.15;6.82;;;26.30;99.90;;;;;;5047032;28;20033;-82
2021/06/20 01:17:04;;;;;;;15.52;6.40;;;26.50;99.90;;;;;;5035503;28;20113;-82
2021/06/20 01:19:30;;;;;;;23.58;6.57;;;26.60;99.90;;;;;;5041201;28;20028;-80
2021/06/20 01:21:57;;;;;;;16.92;5.47;;;26.70;99.90;;;;;;5055513;28;20040;-82
2021/06/20 01:24:23;;;;;;;28.02;7.25;;;26.80;99.90;;;;;;5048481;28;20029;-82
2021/06/20 01:26:48;;;;;;;22.77;7.72;;;26.80;99.90;;;;;;5035062;28;20041;-82
2021/06/20 01:29:16;;;;;;;23.30;6.30;;;26.80;99.90;;;;;;5038309;28;20021;-81
2021/06/20 01:31:49;;;;;;;24.27;7.03;;;26.80;99.90;;;;;;5053737;28;20033;-81
2021/06/20 01:34:15;;;;;;;24.00;8.25;;;26.90;99.90;;;;;;5054348;28;20369;-80
2021/06/20 01:36:40;;;;;;;24.95;7.57;;;26.80;99.90;;;;;;5056902;28;20036;-81
2021/06/20 01:39:08;;;;;;;32.58;8.32;;;26.80;99.90;;;;;;5041252;28;20029;-81
2021/06/20 01:41:34;;;;;;;28.92;7.45;;;26.80;99.90;;;;;;5036463;28;20028;-79
2021/06/20 01:43:59;;;;;;;27.13;6.75;;;26.80;99.90;;;;;;5054517;28;20408;-82
2021/06/20 01:46:25;;;;;;;29.75;7.80;;;26.80;99.90;;;;;;5056955;28;20025;-82
2021/06/20 01:48:50;;;;;;;20.00;5.93;;;26.70;99.90;;;;;;5041704;28;20033;-81
2021/06/20 01:51:16;;;;;;;25.83;6.68;;;26.70;99.90;;;;;;5038606;28;20409;-80
2021/06/20 01:53:42;;;;;;;28.88;8.52;;;26.60;99.90;;;;;;5053243;28;20052;-81
2021/06/20 01:56:08;;;;;;;25.23;6.78;;;26.60;99.90;;;;;;5058786;28;20373;-81
2021/06/20 01:58:33;;;;;;;35.92;7.72;;;26.50;99.90;;;;;;5045029;28;20044;-81
2021/06/20 02:01:01;;;;;;;27.45;8.43;;;26.50;99.90;;;;;;5038874;28;20435;-82
2021/06/20 02:03:28;;;;;;;26.02;6.88;;;26.40;99.90;;;;;;5048125;28;20065;-81
2021/06/20 02:06:00;;;;;;;28.73;6.70;;;26.40;99.90;;;;;;5050756;28;20025;-81
2021/06/20 02:08:26;;;;;;;22.08;7.45;;;26.30;99.90;;;;;;5038807;28;20025;-80
2021/06/20 02:10:54;;;;;;;31.33;7.07;;;26.30;99.90;;;;;;5044331;28;20029;-81
2021/06/20 02:13:23;;;;;;;20.60;6.30;;;26.30;99.90;;;;;;5057702;28;20020;-82
2021/06/20 02:15:52;;;;;;;21.10;6.47;;;26.20;99.90;;;;;;5049259;28;20025;-79
2021/06/20 02:18:18;;;;;;;31.40;8.50;;;26.20;99.90;;;;;;5037104;28;20036;-81
2021/06/20 02:20:44;;;;;;;17.77;6.38;;;26.20;99.90;;;;;;5041935;28;20021;-82
2021/06/20 02:23:10;;;;;;;31.90;7.47;;;26.20;99.90;;;;;;5058448;28;20032;-80
2021/06/20 02:25:36;;;;;;;29.52;6.95;;;26.10;99.90;;;;;;5053262;28;20029;-80
2021/06/20 02:28:02;;;;;;;31.80;6.78;;;26.10;99.90;;;;;;5036497;28;20022;-80
2021/06/20 02:30:28;;;;;;;26.45;7.95;;;26.10;99.90;;;;;;5036966;28;20088;-79
2021/06/20 02:32:54;;;;;;;39.75;7.72;;;26.10;99.90;;;;;;5055660;28;20393;-80
2021/06/20 02:35:21;;;;;;;22.90;5.88;;;26.00;99.90;;;;;;5037070;28;20021;-79
2021/06/20 02:37:47;;;;;;;25.80;6.65;;;26.10;99.90;;;;;;5042263;28;20028;-80
2021/06/20 02:40:14;;;;;;;24.83;6.72;;;26.00;99.90;;;;;;5057060;28;20025;-81
2021/06/20 02:42:39;;;;;;;29.15;8.80;;;26.00;99.90;;;;;;5056819;28;20093;-80
2021/06/20 02:45:07;;;;;;;22.10;6.57;;;26.00;99.90;;;;;;5041286;28;20077;-81
2021/06/20 02:47:33;;;;;;;20.42;6.03;;;26.00;99.90;;;;;;5035968;28;20025;-80
2021/06/20 02:49:58;;;;;;;22.17;6.50;;;25.90;99.90;;;;;;5050604;28;20028;-82
2021/06/20 02:52:24;;;;;;;28.42;6.82;;;25.90;99.90;;;;;;5056968;28;20445;-80
2021/06/20 02:54:50;;;;;;;21.95;7.03;;;25.90;99.90;;;;;;5047735;28;20029;-80
2021/06/20 02:57:24;;;;;;;25.60;7.75;;;25.90;99.90;;;;;;5036828;28;20038;-80
2021/06/20 02:59:54;;;;;;;32.13;8.52;;;25.70;99.90;;;;;;5046992;28;20029;-81
2021/06/20 03:02:21;;;;;;;20.17;6.32;;;25.70;99.90;;;;;;5055532;28;20021;-82
2021/06/20 03:04:47;;;;;;;29.65;6.78;;;25.60;99.90;;;;;;5056606;28;20020;-81
2021/06/20 03:07:14;;;;;;;24.27;7.18;;;25.40;1.00;;;;;;5047714;28;20025;-81
2021/06/20 03:09:39;;;;;;;20.33;6.72;;;25.30;1.00;;;;;;5034392;28;20104;-80
2021/06/20 03:12:07;;;;;;;29.67;7.35;;;25.30;2.10;;;;;;5053157;28;20024;-82
2021/06/20 03:14:34;;;;;;;21.00;7.75;;;25.30;99.90;;;;;;5054805;28;20033;-78
2021/06/20 03:17:01;;;;;;;20.95;7.40;;;25.10;99.90;;;;;;5038851;28;20028;-81
2021/06/20 03:19:27;;;;;;;20.70;7.50;;;25.00;99.90;;;;;;5035255;28;20167;-80
2021/06/20 03:21:57;;;;;;;24.90;7.40;;;25.00;1.00;;;;;;5035854;28;20053;-83
2021/06/20 03:24:23;;;;;;;26.52;7.70;;;25.00;1.00;;;;;;5037364;28;20024;-81
2021/06/20 03:26:48;;;;;;;15.38;7.47;;;24.90;47.40;;;;;;5048216;28;20033;-81
2021/06/20 03:29:14;;;;;;;22.08;6.90;;;24.80;99.90;;;;;;5057284;28;20392;-80
2021/06/20 03:31:40;;;;;;;22.05;7.95;;;24.70;99.90;;;;;;5038026;28;20029;-82
2021/06/20 03:34:05;;;;;;;17.80;7.25;;;24.80;99.90;;;;;;5035137;28;20029;-81
2021/06/20 03:36:31;;;;;;;24.25;7.05;;;24.80;99.90;;;;;;5051378;28;20032;-80
2021/06/20 03:38:57;;;;;;;19.02;7.28;;;24.70;99.90;;;;;;5054948;28;20029;-81
2021/06/20 03:41:23;;;;;;;26.92;7.28;;;24.70;99.90;;;;;;5053871;28;20029;-82
2021/06/20 03:43:49;;;;;;;29.88;9.45;;;24.70;1.00;;;;;;5055106;28;20025;-81
2021/06/20 03:46:14;;;;;;;15.57;7.05;;;24.70;1.00;;;;;;5053710;28;20032;-80
2021/06/20 03:48:40;;;;;;;21.85;7.70;;;24.70;1.00;;;;;;5054550;28;20021;-81
2021/06/20 03:51:07;;;;;;;29.52;9.25;;;24.70;1.00;;;;;;5043320;28;20087;-80
2021/06/20 03:53:33;;;;;;;20.83;6.65;;;24.70;20.70;;;;;;5034426;28;20036;-81
2021/06/20 03:55:59;;;;;;;30.73;7.43;;;24.70;42.20;;;;;;5043402;28;20029;-81
2021/06/20 03:58:25;;;;;;;26.55;7.57;;;24.60;92.60;;;;;;5050140;28;20080;-82
2021/06/20 04:00:50;;;;;;;17.50;6.05;;;24.60;99.90;;;;;;5036165;28;20064;-82
2021/06/20 04:03:16;;;;;;;19.75;8.15;;;24.70;99.90;;;;;;5039884;28;20055;-80
2021/06/20 04:05:42;;;;;;;23.85;6.07;;;24.60;99.90;;;;;;5055224;28;20021;-81
2021/06/20 04:08:08;;;;;;;25.40;8.10;;;24.70;99.90;;;;;;5053012;28;20115;-80
2021/06/20 04:10:34;;;;;;;28.25;7.03;;;24.70;99.90;;;;;;5035013;28;20520;-81
2021/06/20 04:13:00;;;;;;;22.10;6.38;;;24.70;99.90;;;;;;5035508;28;20033;-82
2021/06/20 04:15:27;;;;;;;27.90;8.20;;;24.70;99.90;;;;;;5056489;28;20438;-81
2021/06/20 04:17:53;;;;;;;19.13;7.40;;;24.80;99.90;;;;;;5054535;28;20055;-80
2021/06/20 04:20:18;;;;;;;20.10;5.90;;;24.90;99.90;;;;;;5034899;28;20025;-80
2021/06/20 04:22:44;;;;;;;22.50;6.20;;;25.10;38.50;;;;;;5035478;28;20045;-80
2021/06/20 04:25:14;;;;;;;22.35;7.32;;;25.30;1.00;;;;;;5050667;28;20036;-80
2021/06/20 04:27:44;;;;;;;21.30;6.55;;;25.30;1.00;;;;;;5049794;28;20022;-81
2021/06/20 04:30:13;;;;;;;21.25;6.95;;;25.20;1.00;;;;;;5033471;28;20034;-80
2021/06/20 04:32:43;;;;;;;19.35;7.55;;;25.10;4.60;;;;;;5035409;28;20022;-82
2021/06/20 04:35:13;;;;;;;21.35;6.35;;;25.10;48.30;;;;;;5050105;28;20109;-82
2021/06/20 04:37:40;;;;;;;24.40;6.40;;;25.00;99.90;;;;;;5053659;28;20028;-81
2021/06/20 04:40:09;;;;;;;26.85;8.73;;;25.00;99.90;;;;;;5038714;28;20036;-82
2021/06/20 04:42:39;;;;;;;29.30;6.72;;;25.10;86.20;;;;;;5034279;28;20117;-80
2021/06/20 04:45:06;;;;;;;20.00;6.80;;;25.10;94.10;;;;;;5049646;28;20021;-81
2021/06/20 04:47:32;;;;;;;21.02;6.22;;;25.30;17.90;;;;;;5055187;28;20029;-82
2021/06/20 04:49:59;;;;;;;20.55;7.57;;;25.60;1.00;;;;;;5035477;28;20030;-81
2021/06/20 04:52:25;;;;;;;24.38;7.05;;;25.60;99.90;;;;;;5035370;28;20021;-81
2021/06/20 04:54:51;;;;;;;20.08;6.15;;;25.40;1.00;;;;;;5035574;28;20036;-82
2021/06/20 04:57:18;;;;;;;26.35;7.50;;;25.30;1.00;;;;;;5033535;28;20029;-81
2021/06/20 04:59:44;;;;;;;19.70;6.00;;;25.40;1.00;;;;;;5049165;28;20064;-81
2021/06/20 05:02:10;;;;;;;19.52;7.38;;;25.50;1.00;;;;;;5054945;28;20025;-83
2021/06/20 05:04:36;;;;;;;17.98;5.38;;;25.70;1.00;;;;;;5041223;28;20096;-82
2021/06/20 05:07:03;;;;;;;24.65;6.43;;;25.90;99.90;;;;;;5039375;28;20018;-81
2021/06/20 05:09:28;;;;;;;29.30;8.55;;;26.30;99.90;;;;;;5054848;28;20033;-81
2021/06/20 05:11:54;;;;;;;20.23;7.53;;;26.50;99.90;;;;;;5052642;28;20069;-80
2021/06/20 05:14:19;;;;;;;20.52;7.30;;;26.20;99.90;;;;;;5054557;28;20412;-83
2021/06/20 05:16:45;;;;;;;17.83;6.15;;;26.20;99.90;;;;;;5051711;28;20074;-82
2021/06/20 05:19:10;;;;;;;25.55;8.50;;;26.10;99.90;;;;;;5034474;28;20036;-81
2021/06/20 05:21:36;;;;;;;24.10;6.90;;;26.00;99.90;;;;;;5035542;28;20017;-81
2021/06/20 05:24:03;;;;;;;18.13;6.00;;;25.90;99.90;;;;;;5058302;28;20546;-82
2021/06/20 05:26:29;;;;;;;22.60;6.30;;;25.70;99.90;;;;;;5058552;28;20215;-81
2021/06/20 05:28:54;;;;;;;17.17;5.25;;;25.70;99.90;;;;;;5056068;28;20471;-81
2021/06/20 05:31:20;;;;;;;18.38;4.10;;;25.60;99.90;;;;;;5058112;28;20408;-81
2021/06/20 05:33:46;;;;;;;14.85;4.82;;;25.60;99.90;;;;;;5040188;28;20120;-82
2021/06/20 05:36:11;;;;;;;10.75;4.10;;;25.60;46.50;;;;;;5051175;28;20055;-82
2021/06/20 05:38:37;;;;;;;13.68;3.60;;;25.60;1.00;;;;;;5049014;28;20029;-81
2021/06/20 05:41:03;;;;;;;10.20;3.47;;;25.60;1.00;;;;;;5038639;28;20033;-82
2021/06/20 05:43:28;;;;;;;13.02;3.25;;;25.70;1.00;;;;;;5037205;28;20049;-81
2021/06/20 05:45:54;;;;;;;15.23;4.28;;;25.50;1.00;;;;;;5037256;28;20057;-81
2021/06/20 05:48:20;;;;;;;15.32;4.20;;;25.40;1.00;;;;;;5037592;28;20025;-80
2021/06/20 05:50:45;;;;;;;9.15;3.40;;;25.30;1.00;;;;;;5036563;28;20057;-80
2021/06/20 05:53:11;;;;;;;12.73;3.67;;;25.30;1.00;;;;;;5054869;28;20021;-81
2021/06/20 05:55:36;;;;;;;16.35;3.88;;;25.30;1.00;;;;;;5043064;28;20587;-80
2021/06/20 05:58:03;;;;;;;11.77;2.65;;;25.50;1.00;;;;;;5038017;28;20032;-81
2021/06/20 06:00:28;;;;;;;10.15;3.13;;;25.50;1.00;;;;;;5050433;28;20029;-80
2021/06/20 06:02:58;;;;;;;9.98;3.17;;;25.60;1.00;;;;;;5057501;28;20473;-81
2021/06/20 06:05:24;;;;;;;8.55;3.95;;;25.50;1.00;;;;;;5045395;28;20026;-81
2021/06/20 06:07:49;;;;;;;12.20;4.93;;;25.60;1.00;;;;;;5038813;28;20574;-79
2021/06/20 06:10:15;;;;;;;10.82;4.20;;;25.80;99.90;;;;;;5048015;28;20025;-78
2021/06/20 06:12:41;;;;;;;12.48;3.25;;;25.70;99.90;;;;;;5057041;28;20021;-80
2021/06/20 06:15:07;;;;;;;6.22;3.67;;;25.90;99.90;;;;;;5047487;28;20027;-80
2021/06/20 06:17:32;;;;;;;9.70;3.40;;;26.40;99.90;;;;;;5036449;28;20018;-80
2021/06/20 06:19:58;;;;;;;15.80;4.35;;;27.10;99.90;;;;;;5043735;28;20098;-80
2021/06/20 06:22:24;;;;;;;11.50;3.88;;;27.60;99.90;;;;;;5064765;28;20021;-79
2021/06/20 06:24:49;;;;;;;17.98;5.35;;;27.30;99.90;;;;;;5080698;28;20028;-81
2021/06/20 06:27:16;;;;;;;23.00;7.18;;;27.10;99.90;;;;;;5063899;28;20029;-82
2021/06/20 06:29:42;;;;;;;19.50;5.63;;;27.20;99.90;;;;;;5079898;28;20076;-83
2021/06/20 06:32:09;;;;;;;24.30;7.25;;;27.20;99.90;;;;;;5095160;22;20056;-76
2021/06/20 06:34:35;;;;;;;19.00;7.53;;;27.60;99.90;;;;;;5047019;28;20436;-77
2021/06/20 06:37:01;;;;;;;20.85;7.40;;;27.40;99.90;;;;;;5059626;28;20072;-76
2021/06/20 06:39:28;;;;;;;22.02;6.20;;;27.40;99.90;;;;;;5064163;28;20029;-76
2021/06/20 06:41:54;;;;;;;19.33;6.72;;;27.40;99.90;;;;;;5070760;28;20099;-77
2021/06/20 06:44:21;;;;;;;17.42;6.85;;;27.60;99.90;;;;;;5070894;28;20093;-77
2021/06/20 06:46:46;;;;;;;17.48;5.93;;;27.40;99.90;;;;;;5074600;28;20076;-78
2021/06/20 06:49:12;;;;;;;18.90;6.30;;;27.70;99.90;;;;;;5069026;28;20060;-77
2021/06/20 06:51:39;;;;;;;20.90;5.72;;;27.60;99.90;;;;;;5069560;28;20060;-76
2021/06/20 06:54:05;;;;;;;14.15;6.18;;;27.00;99.90;;;;;;5069934;28;20045;-76
2021/06/20 06:56:31;;;;;;;11.80;4.28;;;26.50;99.90;;;;;;5081590;28;20067;-76
2021/06/20 06:58:56;;;;;;;18.58;4.43;;;26.40;99.90;;;;;;5086479;28;20028;-78
2021/06/20 07:01:22;;;;;;;14.60;4.43;;;26.10;99.90;;;;;;5075676;28;20018;-78
2021/06/20 07:03:49;;;;;;;13.00;4.18;;;25.90;99.90;;;;;;5064072;28;20028;-77
2021/06/20 07:06:14;;;;;;;16.13;5.30;;;25.90;99.90;;;;;;5071325;28;20031;-78
2021/06/20 07:08:40;;;;;;;18.27;5.38;;;25.90;99.90;;;;;;5085927;28;20064;-76
2021/06/20 07:11:06;;;;;;;12.13;4.45;;;26.40;99.90;;;;;;5082998;28;20460;-78
2021/06/20 07:13:32;;;;;;;18.35;5.03;;;26.70;99.90;;;;;;5083232;28;20029;-76
2021/06/20 07:15:59;;;;;;;13.82;4.38;;;26.80;99.90;;;;;;5076738;28;20085;-78
2021/06/20 07:18:26;;;;;;;16.48;5.28;;;26.80;99.90;;;;;;5063981;28;20033;-77
2021/06/20 07:20:51;;;;;;;10.00;4.60;;;26.50;99.90;;;;;;5047297;28;20109;-78
2021/06/20 07:23:17;;;;;;;9.30;4.22;;;26.70;99.90;;;;;;5061537;28;20060;-78
2021/06/20 07:25:43;;;;;;;15.35;4.60;;;26.40;99.90;;;;;;5062921;28;20032;-78
2021/06/20 07:28:09;;;;;;;14.82;4.60;;;26.80;99.90;;;;;;5062291;28;20021;-78
2021/06/20 07:30:34;;;;;;;9.65;4.05;;;26.80;99.90;;;;;;5060335;28;20033;-78
2021/06/20 07:33:00;;;;;;;18.15;5.90;;;27.00;99.90;;;;;;5072340;28;20048;-77
2021/06/20 07:35:26;;;;;;;13.80;4.35;;;26.90;99.90;;;;;;5091499;28;20028;-76
2021/06/20 07:37:52;;;;;;;10.43;3.90;;;26.90;99.90;;;;;;5086560;28;20024;-75
2021/06/20 07:40:19;;;;;;;13.48;4.28;;;26.80;99.90;;;;;;5096686;28;20104;-75
2021/06/20 07:42:45;;;;;;;12.38;4.50;;;26.90;99.90;;;;;;5086687;28;20067;-79
2021/06/20 07:45:12;;;;;;;12.27;4.57;;;27.10;99.90;;;;;;5082256;28;20020;-77
2021/06/20 07:47:38;;;;;;;17.48;4.40;;;27.00;95.70;;;;;;5069969;28;20021;-76
2021/06/20 07:50:10;;;;;;;12.43;5.43;;;26.90;96.30;;;;;;5061214;28;20036;-77
2021/06/20 07:52:37;;;;;;;13.93;4.72;;;26.90;99.90;;;;;;5063066;28;20028;-77
2021/06/20 07:55:03;;;;;;;11.70;4.40;;;26.90;97.00;;;;;;5062364;28;20181;-77
2021/06/20 07:57:29;;;;;;;10.88;4.18;;;26.90;95.40;;;;;;5069227;28;20034;-78
2021/06/20 07:59:54;;;;;;;13.00;4.53;;;27.00;84.90;;;;;;5079371;28;20108;-77
2021/06/20 08:02:20;;;;;;;22.02;4.32;;;26.90;79.80;;;;;;5069450;28;20201;-78
2021/06/20 08:04:46;;;;;;;16.73;5.82;;;26.90;70.80;;;;;;5057105;28;20512;-78
2021/06/20 08:07:12;;;;;;;11.73;4.60;;;26.70;74.10;;;;;;5055687;28;20439;-76
2021/06/20 08:09:38;;;;;;;9.00;4.00;;;26.60;70.40;;;;;;5060956;28;20028;-77
2021/06/20 08:12:05;;;;;;;15.55;5.05;;;26.70;75.30;;;;;;5072133;28;20036;-78
2021/06/20 08:14:30;;;;;;;8.27;3.85;;;26.60;73.40;;;;;;5064097;28;20090;-76
2021/06/20 08:16:56;;;;;;;11.63;4.60;;;26.80;62.00;;;;;;5053778;28;20432;-76
2021/06/20 08:19:22;;;;;;;11.88;4.57;;;26.80;41.00;;;;;;5062450;28;20036;-78
2021/06/20 08:21:49;;;;;;;7.85;3.55;;;26.70;34.50;;;;;;5077381;28;20071;-79
2021/06/20 08:24:15;;;;;;;9.82;4.75;;;26.80;28.30;;;;;;5069605;28;20396;-78
2021/06/20 08:26:41;;;;;;;13.73;3.67;;;26.70;29.90;;;;;;5055147;28;20033;-76
2021/06/20 08:29:07;;;;;;;9.32;3.70;;;26.70;24.30;;;;;;5060405;28;20020;-79
2021/06/20 08:31:34;;;;;;;6.93;3.40;;;26.70;21.30;;;;;;5074692;28;20055;-78
2021/06/20 08:34:00;;;;;;;11.10;3.78;;;26.80;16.80;;;;;;5070497;28;20533;-77
2021/06/20 08:36:27;;;;;;;12.68;4.30;;;26.80;9.00;;;;;;5054766;28;20099;-76
2021/06/20 08:38:52;;;;;;;10.73;3.95;;;26.80;1.00;;;;;;5073670;28;20032;-77
2021/06/20 08:41:18;;;;;;;11.15;5.60;;;26.60;1.00;;;;;;5072800;28;20021;-77
2021/06/20 09:00:50;;;;;;;8.95;3.42;;;27.50;1.00;;;;;;5138082;28;20407;-75
2021/06/20 09:03:16;;;;;;;13.50;4.20;;;27.50;1.00;;;;;;5135230;28;20539;-74
2021/06/20 09:06:01;;;;;;;10.90;4.57;;;27.60;1.00;;;;;;5104363;28;82199;-75
2021/06/20 09:08:28;;;;;;;11.98;4.28;;;27.60;1.00;;;;;;5118472;28;20039;-75
2021/06/20 09:10:54;;;;;;;13.63;4.30;;;27.60;1.00;;;;;;5117167;28;20046;-74
2021/06/20 09:13:20;;;;;;;12.55;4.63;;;27.40;1.00;;;;;;5117725;28;20476;-74
2021/06/20 09:16:00;;;;;;;11.13;4.00;;;27.10;1.00;;;;;;5110530;28;20039;-75
2021/06/20 09:18:26;;;;;;;10.40;4.45;;;27.60;1.00;;;;;;5074701;28;20089;-76
2021/06/20 09:20:52;;;;;;;8.65;3.22;;;27.50;1.00;;;;;;5090934;28;20028;-76
2021/06/20 09:23:18;;;;;;;10.27;4.28;;;27.50;1.00;;;;;;5091367;28;20047;-75
2021/06/20 09:25:55;;;;;;;10.85;3.92;;;27.30;1.00;;;;;;5084468;28;20030;-76
2021/06/20 09:28:21;;;;;;;10.60;3.92;;;27.50;1.00;;;;;;5098466;28;20370;-74
2021/06/20 09:30:52;;;;;;;8.68;3.10;;;27.40;1.00;;;;;;5071907;28;20157;-75
2021/06/20 09:33:19;;;;;;;11.10;5.10;;;27.50;1.00;;;;;;5088800;28;20016;-74
2021/06/20 09:35:53;;;;;;;9.93;4.60;;;27.20;1.00;;;;;;5090108;28;20030;-75
2021/06/20 09:38:28;;;;;;;7.72;3.50;;;27.20;1.00;;;;;;5090583;28;20431;-76
2021/06/20 09:41:01;;;;;;;7.07;3.10;;;27.70;1.00;;;;;;5107188;28;20055;-75
2021/06/20 09:43:26;;;;;;;13.32;4.60;;;27.70;1.00;;;;;;5109881;28;20106;-74
2021/06/20 09:45:53;;;;;;;11.13;4.00;;;27.40;1.00;;;;;;5109316;28;20051;-76
2021/06/20 09:48:31;;;;;;;10.70;3.50;;;27.30;1.00;;;;;;5109715;28;20411;-75
2021/06/20 09:50:59;;;;;;;18.17;4.78;;;27.50;1.00;;;;;;5075676;28;20024;-76
2021/06/20 09:53:33;;;;;;;12.35;4.43;;;27.70;1.00;;;;;;5088939;28;20069;-75
2021/06/20 09:56:22;;;;;;;9.23;4.45;;;27.60;1.00;;;;;;5067177;28;20032;-75
2021/06/20 09:59:03;;;;;;;8.65;4.57;;;27.70;1.00;;;;;;5076649;28;20111;-75
2021/06/20 10:01:31;;;;;;;12.57;3.83;;;27.40;1.00;;;;;;5076263;28;20024;-75
2021/06/20 10:03:57;;;;;;;15.68;5.15;;;27.60;1.00;;;;;;5076903;28;20044;-74
2021/06/20 10:06:23;;;;;;;10.50;4.05;;;27.70;1.00;;;;;;5096297;28;20038;-74
2021/06/20 10:08:49;;;;;;;9.25;4.03;;;27.70;1.00;;;;;;5096773;28;20035;-75
2021/06/20 10:11:16;;;;;;;10.07;4.25;;;27.60;1.00;;;;;;5096600;28;20024;-75
2021/06/20 10:13:42;;;;;;;7.63;3.90;;;27.80;1.00;;;;;;5097181;28;20130;-76
2021/06/20 10:16:29;;;;;;;8.75;3.92;;;28.50;1.00;;;;;;5078324;28;20058;-75
2021/06/20 10:19:05;;;;;;;12.95;3.97;;;28.50;1.00;;;;;;5079608;28;20033;-73
2021/06/20 10:21:43;;;;;;;10.88;3.60;;;28.50;99.90;;;;;;5086231;28;20088;-74
2021/06/20 10:24:11;;;;;;;13.27;3.78;;;28.40;99.90;;;;;;5076866;28;20028;-75
2021/06/20 10:26:57;;;;;;;10.93;4.03;;;27.80;99.90;;;;;;5097010;28;20051;-76
2021/06/20 10:29:25;;;;;;;7.55;3.10;;;27.20;99.90;;;;;;5091820;28;20043;-74
2021/06/20 10:31:53;;;;;;;13.82;4.15;;;27.10;99.90;;;;;;5087956;28;20020;-76
2021/06/20 10:34:29;;;;;;;9.00;4.05;;;27.10;99.90;;;;;;5095992;28;20479;-75
2021/06/20 10:36:58;;;;;;;12.70;3.45;;;27.10;99.90;;;;;;5096489;28;20111;-75
2021/06/20 10:39:24;;;;;;;18.30;5.07;;;27.80;99.90;;;;;;5095275;28;20051;-74
2021/06/20 10:42:05;;;;;;;14.63;3.80;;;28.10;99.90;;;;;;5079429;28;20059;-75
2021/06/20 10:44:47;;;;;;;10.80;2.97;;;28.30;99.90;;;;;;5078992;28;20032;-75
2021/06/20 10:47:30;;;;;;;11.07;3.00;;;28.00;99.90;;;;;;5078191;28;20047;-75
2021/06/20 10:50:05;;;;;;;5.80;2.70;;;28.10;99.90;;;;;;5081095;28;20358;-75
2021/06/20 10:52:31;;;;;;;11.13;4.10;;;27.90;99.90;;;;;;5075579;28;20512;-75
2021/06/20 10:55:14;;;;;;;10.25;2.67;;;28.00;99.90;;;;;;5083435;28;20036;-76
2021/06/20 10:57:51;;;;;;;5.22;2.50;;;28.00;99.90;;;;;;5093268;28;20032;-75
2021/06/20 11:00:29;;;;;;;6.53;2.72;;;28.10;99.90;;;;;;5076758;28;20020;-75
2021/06/20 11:03:06;;;;;;;5.75;2.28;;;28.30;99.90;;;;;;5095404;28;20446;-75
2021/06/20 11:05:52;;;;;;;8.80;2.75;;;28.60;99.90;;;;;;5096509;28;20035;-75
2021/06/20 11:08:43;;;;;;;10.70;2.65;;;28.60;99.90;;;;;;5096504;28;20067;-75
2021/06/20 11:11:17;;;;;;;6.90;2.30;;;28.80;99.90;;;;;;5077515;28;20023;-74
2021/06/20 11:13:48;;;;;;;4.38;1.73;;;29.30;99.90;;;;;;5059264;28;20081;-74
2021/06/20 11:16:33;;;;;;;10.30;2.58;;;29.50;99.90;;;;;;5059495;28;20489;-74
2021/06/20 11:19:08;;;;;;;5.78;1.88;;;29.20;99.90;;;;;;5077309;28;20031;-76
2021/06/20 11:21:37;;;;;;;8.90;2.90;;;29.30;99.90;;;;;;5086482;28;20078;-75
2021/06/20 11:24:03;;;;;;;6.75;2.80;;;29.20;99.90;;;;;;5076983;28;20031;-75
2021/06/20 11:26:29;;;;;;;6.65;1.83;;;29.70;99.90;;;;;;5088510;28;20465;-76
2021/06/20 11:29:02;;;;;;;9.65;1.90;;;29.80;99.90;;;;;;5095707;28;20031;-75
2021/06/20 11:31:28;;;;;;;8.43;3.33;;;29.80;99.90;;;;;;5092687;28;20032;-74
2021/06/20 11:33:55;;;;;;;8.73;2.88;;;29.90;99.90;;;;;;5096216;28;20039;-74
2021/06/20 11:36:21;;;;;;;5.13;2.38;;;30.10;99.90;;;;;;5095872;28;20107;-74
2021/06/20 11:38:47;;;;;;;7.72;2.63;;;30.00;99.90;;;;;;5094501;28;20071;-75
2021/06/20 11:41:20;;;;;;;5.18;1.90;;;29.50;99.90;;;;;;5080872;28;20033;-74
2021/06/20 11:44:03;;;;;;;6.60;2.05;;;30.60;99.90;;;;;;5084004;28;20036;-73
2021/06/20 11:46:32;;;;;;;6.68;2.30;;;30.40;99.90;;;;;;5075549;28;20098;-74
2021/06/20 11:48:58;;;;;;;8.48;2.95;;;30.00;99.90;;;;;;5088768;28;20055;-73
2021/06/20 11:51:33;;;;;;;8.25;2.33;;;30.10;99.90;;;;;;5094307;28;20032;-75
2021/06/20 11:54:07;;;;;;;9.30;3.75;;;30.10;99.90;;;;;;5103509;28;20012;-76
2021/06/20 11:56:33;;;;;;;7.22;2.50;;;30.10;99.90;;;;;;5096516;28;20077;-73
2021/06/20 11:58:59;;;;;;;8.57;3.17;;;30.70;99.90;;;;;;5111435;28;20024;-75
2021/06/20 12:01:37;;;;;;;7.05;2.35;;;30.80;99.90;;;;;;5112155;28;20111;-74
2021/06/20 12:04:03;;;;;;;10.80;2.92;;;30.70;99.90;;;;;;5109953;28;20032;-76
2021/06/20 12:06:30;;;;;;;6.72;2.58;;;30.40;99.90;;;;;;5075522;28;20362;-76
2021/06/20 12:08:57;;;;;;;5.28;2.15;;;30.60;99.90;;;;;;5094736;28;20099;-76
2021/06/20 12:11:33;;;;;;;7.90;2.38;;;31.10;99.90;;;;;;5076417;28;20098;-76
2021/06/20 12:13:59;;;;;;;11.45;3.35;;;31.20;99.90;;;;;;5094420;28;20024;-76
2021/06/20 12:16:25;;;;;;;9.63;2.95;;;30.90;99.90;;;;;;5094770;28;20410;-74
2021/06/20 12:18:53;;;;;;;7.10;3.15;;;31.10;99.90;;;;;;5112978;28;20001;-75
2021/06/20 12:21:30;;;;;;;10.73;2.95;;;30.70;99.90;;;;;;5078428;28;20500;-75
2021/06/20 12:23:58;;;;;;;11.48;2.53;;;30.70;99.90;;;;;;5096980;28;20129;-75
2021/06/20 12:26:27;;;;;;;18.50;3.28;;;30.80;99.90;;;;;;5095619;28;20028;-75
2021/06/20 12:28:53;;;;;;;14.20;3.00;;;31.20;99.90;;;;;;5096298;28;20379;-76
2021/06/20 12:31:19;;;;;;;21.27;3.55;;;31.40;99.90;;;;;;5077136;28;20024;-77
2021/06/20 12:33:45;;;;;;;16.38;3.05;;;31.40;99.90;;;;;;5095054;28;20488;-75
2021/06/20 12:36:11;;;;;;;7.38;2.65;;;30.60;99.90;;;;;;5099709;28;20039;-75
2021/06/20 12:38:38;;;;;;;9.13;3.47;;;30.90;99.90;;;;;;5103865;28;20032;-74
2021/06/20 12:41:14;;;;;;;16.38;3.17;;;30.80;99.90;;;;;;5095837;28;20044;-76
2021/06/20 12:43:40;;;;;;;14.65;3.80;;;30.80;99.90;;;;;;5097055;28;20051;-75
2021/06/20 12:46:08;;;;;;;17.65;3.97;;;30.70;99.90;;;;;;5095825;28;20504;-75
2021/06/20 12:48:38;;;;;;;39.60;5.22;;;30.60;99.90;;;;;;5077491;28;20020;-76
2021/06/20 12:51:05;;;;;;;;;;;30.30;99.90;;;;;;5094050;28;20103;-76
2021/06/20 12:53:40;;;;;;;11.82;4.00;;;30.30;99.90;;;;;;5096142;28;20230;-76
2021/06/20 12:56:07;;;;;;;17.95;3.88;;;30.40;99.90;;;;;;5094868;28;20020;-75
2021/06/20 12:58:34;;;;;;;16.80;4.07;;;30.50;99.90;;;;;;5095796;28;20170;-75
2021/06/20 13:01:01;;;;;;;16.63;3.22;;;30.20;99.90;;;;;;5076492;28;20024;-75
2021/06/20 13:03:28;;;;;;;20.58;4.55;;;30.00;99.90;;;;;;5094240;28;20447;-74